Pruszkow, Poland
Current Conditions -  °F | °C
As of 1:30 PM on Thursday 23 Oct 2014 (Local Time) from EPWA Reporting Station
Broken Clouds Broken Clouds  
Wind Chill: 32°   Ceiling: 1800
Heat Index: 39°   Visibility: 6mi
Dew Point: 34°   Wind: 13mph
Humidity: 81%   Direction: 60°ENE
Pressure: 30.12"   Gusts: NA
Location:  52.22°N, 20.82°E
Report Text: EPWA 231130Z 06011KT 9999 BKN018 04/01 Q1020 NOSIG
Loading
Personal Weather Stations






























Interactive Weather Map
Tropical Storm Tracking
New forecast layout! Learn more

10-Day Weather Forecast

Advertisements
Track Severe Weather on mobile